sensor_id;sensor_type;location;lat;lon;timestamp;pressure;altitude;pressure_sealevel;temperature;humidity
10014;BME280;45684;48.358;10.746;2023-02-08T00:02:19;98071.41;;;-3.84;96.77
10014;BME280;45684;48.358;10.746;2023-02-08T00:04:47;98073.63;;;-3.73;95.07
10014;BME280;45684;48.358;10.746;2023-02-08T00:07:15;98067.59;;;-3.81;94.65
10014;BME280;45684;48.358;10.746;2023-02-08T00:09:42;98060.78;;;-3.76;95.32
10014;BME280;45684;48.358;10.746;2023-02-08T00:12:11;98070.34;;;-3.75;94.73
10014;BME280;45684;48.358;10.746;2023-02-08T00:14:39;98067.13;;;-3.85;94.43
10014;BME280;45684;48.358;10.746;2023-02-08T00:17:07;98064.75;;;-3.80;95.23
10014;BME280;45684;48.358;10.746;2023-02-08T00:19:35;98054.00;;;-3.78;94.70
10014;BME280;45684;48.358;10.746;2023-02-08T00:22:03;98057.72;;;-3.88;95.48
10014;BME280;45684;48.358;10.746;2023-02-08T00:24:31;98055.78;;;-3.94;96.43
10014;BME280;45684;48.358;10.746;2023-02-08T00:26:58;98048.22;;;-3.97;96.60
10014;BME280;45684;48.358;10.746;2023-02-08T00:29:27;98052.03;;;-3.99;96.41
10014;BME280;45684;48.358;10.746;2023-02-08T00:31:56;98050.69;;;-3.95;96.41
10014;BME280;45684;48.358;10.746;2023-02-08T00:34:24;98047.09;;;-4.02;97.46
10014;BME280;45684;48.358;10.746;2023-02-08T00:36:52;98047.56;;;-3.99;97.31
10014;BME280;45684;48.358;10.746;2023-02-08T00:39:20;98038.53;;;-4.04;97.91
10014;BME280;45684;48.358;10.746;2023-02-08T00:41:50;98044.47;;;-4.02;97.54
10014;BME280;45684;48.358;10.746;2023-02-08T00:44:18;98038.13;;;-4.16;98.86
10014;BME280;45684;48.358;10.746;2023-02-08T00:46:47;98033.06;;;-4.26;99.75
10014;BME280;45684;48.358;10.746;2023-02-08T00:49:16;98038.06;;;-4.31;100.00
10014;BME280;45684;48.358;10.746;2023-02-08T00:51:44;98038.78;;;-4.37;100.00
10014;BME280;45684;48.358;10.746;2023-02-08T00:54:13;98043.28;;;-4.46;100.00
10014;BME280;45684;48.358;10.746;2023-02-08T00:56:42;98043.56;;;-4.41;100.00
10014;BME280;45684;48.358;10.746;2023-02-08T00:59:10;98035.53;;;-4.47;100.00
10014;BME280;45684;48.358;10.746;2023-02-08T01:01:39;98036.50;;;-4.48;100.00
10014;BME280;45684;48.358;10.746;2023-02-08T01:04:09;98036.81;;;-4.43;100.00
10014;BME280;45684;48.358;10.746;2023-02-08T01:06:37;98041.41;;;-4.37;100.00
10014;BME280;45684;48.358;10.746;2023-02-08T01:09:05;98047.03;;;-4.40;100.00
10014;BME280;45684;48.358;10.746;2023-02-08T01:11:33;98050.16;;;-4.37;100.00
10014;BME280;45684;48.358;10.746;2023-02-08T01:14:01;98045.06;;;-4.38;100.00
10014;BME280;45684;48.358;10.746;2023-02-08T01:16:31;98051.59;;;-4.34;100.00
10014;BME280;45684;48.358;10.746;2023-02-08T01:19:01;98057.94;;;-4.43;100.00
10014;BME280;45684;48.358;10.746;2023-02-08T01:21:32;98046.91;;;-4.47;100.00
10014;BME280;45684;48.358;10.746;2023-02-08T01:24:01;98056.00;;;-4.49;100.00
10014;BME280;45684;48.358;10.746;2023-02-08T01:26:29;98044.97;;;-4.53;100.00
10014;BME280;45684;48.358;10.746;2023-02-08T01:28:58;98044.09;;;-4.45;100.00
10014;BME280;45684;48.358;10.746;2023-02-08T01:31:28;98052.13;;;-4.39;100.00
10014;BME280;45684;48.358;10.746;2023-02-08T01:33:59;98048.16;;;-4.34;100.00
10014;BME280;45684;48.358;10.746;2023-02-08T01:36:30;98056.53;;;-4.31;100.00
10014;BME280;45684;48.358;10.746;2023-02-08T01:38:59;98053.66;;;-4.44;100.00
10014;BME280;45684;48.358;10.746;2023-02-08T01:41:29;98043.31;;;-4.54;100.00
10014;BME280;45684;48.358;10.746;2023-02-08T01:44:04;98039.03;;;-4.55;100.00
10014;BME280;45684;48.358;10.746;2023-02-08T01:46:33;98040.03;;;-4.56;100.00
10014;BME280;45684;48.358;10.746;2023-02-08T01:49:05;98037.69;;;-4.51;100.00
10014;BME280;45684;48.358;10.746;2023-02-08T01:51:38;98032.56;;;-4.52;100.00
10014;BME280;45684;48.358;10.746;2023-02-08T01:54:09;98034.25;;;-4.51;100.00
10014;BME280;45684;48.358;10.746;2023-02-08T01:56:40;98033.66;;;-4.62;100.00
10014;BME280;45684;48.358;10.746;2023-02-08T01:59:13;98036.59;;;-4.56;100.00
10014;BME280;45684;48.358;10.746;2023-02-08T02:01:45;98024.72;;;-4.60;100.00
10014;BME280;45684;48.358;10.746;2023-02-08T02:04:14;98032.75;;;-4.54;100.00
10014;BME280;45684;48.358;10.746;2023-02-08T02:06:46;98036.22;;;-4.53;100.00
10014;BME280;45684;48.358;10.746;2023-02-08T02:09:17;98037.84;;;-4.52;100.00
10014;BME280;45684;48.358;10.746;2023-02-08T02:11:47;98036.22;;;-4.53;100.00
10014;BME280;45684;48.358;10.746;2023-02-08T02:14:17;98032.94;;;-4.55;100.00
10014;BME280;45684;48.358;10.746;2023-02-08T02:16:45;98024.88;;;-4.62;100.00
10014;BME280;45684;48.358;10.746;2023-02-08T02:19:18;98020.25;;;-4.60;100.00
10014;BME280;45684;48.358;10.746;2023-02-08T02:22:02;98020.44;;;-4.62;100.00
10014;BME280;45684;48.358;10.746;2023-02-08T02:25:00;98019.78;;;-4.64;100.00
10014;BME280;45684;48.358;10.746;2023-02-08T02:28:00;98019.25;;;-4.59;100.00
10014;BME280;45684;48.358;10.746;2023-02-08T02:30:53;98019.44;;;-4.60;100.00
10014;BME280;45684;48.358;10.746;2023-02-08T02:33:38;98015.81;;;-4.59;100.00
10014;BME280;45684;48.358;10.746;2023-02-08T02:36:16;98021.09;;;-4.59;100.00
10014;BME280;45684;48.358;10.746;2023-02-08T02:38:53;98019.31;;;-4.67;100.00
10014;BME280;45684;48.358;10.746;2023-02-08T02:41:29;98018.47;;;-4.68;100.00
10014;BME280;45684;48.358;10.746;2023-02-08T02:44:22;98027.75;;;-4.72;100.00
10014;BME280;45684;48.358;10.746;2023-02-08T02:46:58;98021.66;;;-4.72;100.00
10014;BME280;45684;48.358;10.746;2023-02-08T02:49:35;98030.03;;;-4.69;100.00
10014;BME280;45684;48.358;10.746;2023-02-08T02:52:09;98032.03;;;-4.71;100.00
10014;BME280;45684;48.358;10.746;2023-02-08T02:54:42;98027.59;;;-4.70;100.00
10014;BME280;45684;48.358;10.746;2023-02-08T02:57:15;98027.59;;;-4.70;100.00
10014;BME280;45684;48.358;10.746;2023-02-08T02:59:44;98030.06;;;-4.77;100.00
10014;BME280;45684;48.358;10.746;2023-02-08T03:02:13;98028.31;;;-4.84;100.00
10014;BME280;45684;48.358;10.746;2023-02-08T03:04:51;98024.69;;;-4.83;100.00
10014;BME280;45684;48.358;10.746;2023-02-08T03:07:41;98020.22;;;-4.83;100.00
10014;BME280;45684;48.358;10.746;2023-02-08T03:10:23;98027.84;;;-4.88;100.00
10014;BME280;45684;48.358;10.746;2023-02-08T03:13:01;98016.47;;;-4.89;100.00
10014;BME280;45684;48.358;10.746;2023-02-08T03:15:38;98009.41;;;-4.96;100.00
10014;BME280;45684;48.358;10.746;2023-02-08T03:18:19;98017.13;;;-4.95;100.00
10014;BME280;45684;48.358;10.746;2023-02-08T03:20:57;98012.53;;;-4.93;100.00
10014;BME280;45684;48.358;10.746;2023-02-08T03:23:29;98018.66;;;-5.00;100.00
10014;BME280;45684;48.358;10.746;2023-02-08T03:26:02;98010.09;;;-5.02;100.00
10014;BME280;45684;48.358;10.746;2023-02-08T03:28:37;98008.41;;;-4.95;100.00
10014;BME280;45684;48.358;10.746;2023-02-08T03:31:12;98005.94;;;-4.97;100.00
10014;BME280;45684;48.358;10.746;2023-02-08T03:33:46;98013.69;;;-4.95;100.00
10014;BME280;45684;48.358;10.746;2023-02-08T03:36:20;98004.00;;;-5.03;100.00
10014;BME280;45684;48.358;10.746;2023-02-08T03:38:51;98005.63;;;-5.02;100.00
10014;BME280;45684;48.358;10.746;2023-02-08T03:41:23;98003.00;;;-5.02;100.00
10014;BME280;45684;48.358;10.746;2023-02-08T03:43:56;98007.09;;;-4.99;100.00
10014;BME280;45684;48.358;10.746;2023-02-08T03:46:29;98005.31;;;-4.99;100.00
10014;BME280;45684;48.358;10.746;2023-02-08T03:49:01;98008.09;;;-5.00;100.00
10014;BME280;45684;48.358;10.746;2023-02-08T03:51:34;98007.28;;;-5.01;100.00
10014;BME280;45684;48.358;10.746;2023-02-08T03:54:05;97994.81;;;-5.15;100.00
10014;BME280;45684;48.358;10.746;2023-02-08T03:56:39;97996.75;;;-5.09;100.00
10014;BME280;45684;48.358;10.746;2023-02-08T03:59:11;97995.94;;;-5.09;100.00
10014;BME280;45684;48.358;10.746;2023-02-08T04:01:43;97999.38;;;-5.09;100.00
10014;BME280;45684;48.358;10.746;2023-02-08T04:04:13;98000.91;;;-5.15;100.00
10014;BME280;45684;48.358;10.746;2023-02-08T04:06:43;97998.56;;;-5.09;100.00
10014;BME280;45684;48.358;10.746;2023-02-08T04:09:11;97997.94;;;-5.11;100.00
10014;BME280;45684;48.358;10.746;2023-02-08T04:11:39;97985.75;;;-5.13;100.00
10014;BME280;45684;48.358;10.746;2023-02-08T04:14:06;97996.31;;;-5.13;100.00
10014;BME280;45684;48.358;10.746;2023-02-08T04:16:34;97990.06;;;-5.20;100.00
10014;BME280;45684;48.358;10.746;2023-02-08T04:19:02;97983.44;;;-5.16;100.00
10014;BME280;45684;48.358;10.746;2023-02-08T04:21:30;97990.03;;;-5.11;100.00
10014;BME280;45684;48.358;10.746;2023-02-08T04:24:00;97985.06;;;-5.06;100.00
10014;BME280;45684;48.358;10.746;2023-02-08T04:26:28;97978.59;;;-5.04;100.00
10014;BME280;45684;48.358;10.746;2023-02-08T04:28:55;97981.81;;;-5.17;100.00
10014;BME280;45684;48.358;10.746;2023-02-08T04:31:23;97969.59;;;-5.18;100.00
10014;BME280;45684;48.358;10.746;2023-02-08T04:33:51;97980.69;;;-5.22;100.00
10014;BME280;45684;48.358;10.746;2023-02-08T04:36:19;97975.56;;;-5.24;100.00
10014;BME280;45684;48.358;10.746;2023-02-08T04:38:47;97977.34;;;-5.16;100.00
10014;BME280;45684;48.358;10.746;2023-02-08T04:41:16;97963.69;;;-5.20;100.00
10014;BME280;45684;48.358;10.746;2023-02-08T04:43:44;97964.03;;;-5.23;100.00
10014;BME280;45684;48.358;10.746;2023-02-08T04:46:12;97957.78;;;-5.22;100.00
10014;BME280;45684;48.358;10.746;2023-02-08T04:48:39;97965.31;;;-5.19;100.00
10014;BME280;45684;48.358;10.746;2023-02-08T04:51:07;97966.00;;;-5.17;100.00
10014;BME280;45684;48.358;10.746;2023-02-08T04:53:35;97956.59;;;-5.19;100.00
10014;BME280;45684;48.358;10.746;2023-02-08T04:56:03;97954.13;;;-5.21;100.00
10014;BME280;45684;48.358;10.746;2023-02-08T04:58:32;97955.78;;;-5.20;100.00
10014;BME280;45684;48.358;10.746;2023-02-08T05:01:04;97952.31;;;-5.20;100.00
10014;BME280;45684;48.358;10.746;2023-02-08T05:03:32;97953.78;;;-5.18;100.00
10014;BME280;45684;48.358;10.746;2023-02-08T05:05:59;97957.59;;;-5.20;100.00
10014;BME280;45684;48.358;10.746;2023-02-08T05:08:27;97947.88;;;-5.28;100.00
10014;BME280;45684;48.358;10.746;2023-02-08T05:10:55;97959.25;;;-5.27;100.00
10014;BME280;45684;48.358;10.746;2023-02-08T05:13:23;97958.44;;;-5.28;100.00
10014;BME280;45684;48.358;10.746;2023-02-08T05:15:52;97955.47;;;-5.25;100.00
10014;BME280;45684;48.358;10.746;2023-02-08T05:18:20;97959.41;;;-5.21;100.00
10014;BME280;45684;48.358;10.746;2023-02-08T05:20:54;97955.78;;;-5.20;100.00
10014;BME280;45684;48.358;10.746;2023-02-08T05:23:22;97953.47;;;-5.23;100.00
10014;BME280;45684;48.358;10.746;2023-02-08T05:25:50;97965.16;;;-5.17;100.00
10014;BME280;45684;48.358;10.746;2023-02-08T05:28:18;97956.41;;;-5.18;100.00
10014;BME280;45684;48.358;10.746;2023-02-08T05:30:46;97965.69;;;-5.22;100.00
10014;BME280;45684;48.358;10.746;2023-02-08T05:33:16;97954.31;;;-5.22;100.00
10014;BME280;45684;48.358;10.746;2023-02-08T05:35:45;97950.84;;;-5.23;100.00
10014;BME280;45684;48.358;10.746;2023-02-08T05:38:12;97957.78;;;-5.22;100.00
10014;BME280;45684;48.358;10.746;2023-02-08T05:40:40;97950.53;;;-5.28;100.00
10014;BME280;45684;48.358;10.746;2023-02-08T05:43:08;97960.94;;;-5.26;100.00
10014;BME280;45684;48.358;10.746;2023-02-08T05:45:36;97962.91;;;-5.28;100.00
10014;BME280;45684;48.358;10.746;2023-02-08T05:48:04;97960.94;;;-5.34;100.00
10014;BME280;45684;48.358;10.746;2023-02-08T05:50:33;97965.03;;;-5.32;100.00
10014;BME280;45684;48.358;10.746;2023-02-08T05:53:01;97971.16;;;-5.31;100.00
10014;BME280;45684;48.358;10.746;2023-02-08T05:55:29;97966.84;;;-5.32;100.00
10014;BME280;45684;48.358;10.746;2023-02-08T05:57:57;97966.22;;;-5.34;100.00
10014;BME280;45684;48.358;10.746;2023-02-08T06:00:25;97974.63;;;-5.31;100.00
10014;BME280;45684;48.358;10.746;2023-02-08T06:02:53;97977.41;;;-5.32;100.00
10014;BME280;45684;48.358;10.746;2023-02-08T06:05:21;97971.69;;;-5.36;100.00
10014;BME280;45684;48.358;10.746;2023-02-08T06:07:50;97970.50;;;-5.33;100.00
10014;BME280;45684;48.358;10.746;2023-02-08T06:10:18;97971.31;;;-5.33;100.00
10014;BME280;45684;48.358;10.746;2023-02-08T06:12:45;97977.25;;;-5.31;100.00
10014;BME280;45684;48.358;10.746;2023-02-08T06:15:13;97982.16;;;-5.28;100.00
10014;BME280;45684;48.358;10.746;2023-02-08T06:17:45;97980.34;;;-5.27;100.00
10014;BME280;45684;48.358;10.746;2023-02-08T06:20:12;97979.19;;;-5.25;100.00
10014;BME280;45684;48.358;10.746;2023-02-08T06:22:40;97975.44;;;-5.30;100.00
10014;BME280;45684;48.358;10.746;2023-02-08T06:25:09;97986.31;;;-5.33;100.00
10014;BME280;45684;48.358;10.746;2023-02-08T06:27:37;97979.22;;;-5.33;100.00
10014;BME280;45684;48.358;10.746;2023-02-08T06:30:05;97971.00;;;-5.38;100.00
10014;BME280;45684;48.358;10.746;2023-02-08T06:32:33;97970.50;;;-5.42;100.00
10014;BME280;45684;48.358;10.746;2023-02-08T06:35:01;97973.81;;;-5.40;100.00
10014;BME280;45684;48.358;10.746;2023-02-08T06:37:29;97977.47;;;-5.49;100.00
10014;BME280;45684;48.358;10.746;2023-02-08T06:39:57;97986.03;;;-5.47;100.00
10014;BME280;45684;48.358;10.746;2023-02-08T06:42:28;97983.06;;;-5.44;100.00
10014;BME280;45684;48.358;10.746;2023-02-08T06:44:56;97981.09;;;-5.50;100.00
10014;BME280;45684;48.358;10.746;2023-02-08T06:47:25;97975.84;;;-5.50;100.00
10014;BME280;45684;48.358;10.746;2023-02-08T06:49:53;97975.78;;;-5.42;100.00
10014;BME280;45684;48.358;10.746;2023-02-08T06:52:21;97986.34;;;-5.42;100.00
10014;BME280;45684;48.358;10.746;2023-02-08T06:54:49;97978.94;;;-5.46;100.00
10014;BME280;45684;48.358;10.746;2023-02-08T06:57:17;97978.78;;;-5.45;100.00
10014;BME280;45684;48.358;10.746;2023-02-08T06:59:46;97982.56;;;-5.47;100.00
10014;BME280;45684;48.358;10.746;2023-02-08T07:02:15;97983.69;;;-5.42;100.00
10014;BME280;45684;48.358;10.746;2023-02-08T07:04:43;97977.47;;;-5.41;100.00
10014;BME280;45684;48.358;10.746;2023-02-08T07:07:12;97986.19;;;-5.40;100.00
10014;BME280;45684;48.358;10.746;2023-02-08T07:09:40;97987.84;;;-5.47;100.00
10014;BME280;45684;48.358;10.746;2023-02-08T07:12:08;97995.72;;;-5.39;100.00
10014;BME280;45684;48.358;10.746;2023-02-08T07:14:38;97997.88;;;-5.43;100.00
10014;BME280;45684;48.358;10.746;2023-02-08T07:17:09;97989.47;;;-5.38;100.00
10014;BME280;45684;48.358;10.746;2023-02-08T07:19:37;97992.41;;;-5.41;100.00
10014;BME280;45684;48.358;10.746;2023-02-08T07:22:06;97980.56;;;-5.37;100.00
10014;BME280;45684;48.358;10.746;2023-02-08T07:24:35;97986.50;;;-5.35;100.00
10014;BME280;45684;48.358;10.746;2023-02-08T07:27:04;97991.09;;;-5.37;100.00
10014;BME280;45684;48.358;10.746;2023-02-08T07:29:32;97988.66;;;-5.47;100.00
10014;BME280;45684;48.358;10.746;2023-02-08T07:32:01;97983.03;;;-5.35;100.00
10014;BME280;45684;48.358;10.746;2023-02-08T07:34:31;97972.13;;;-5.32;100.00
10014;BME280;45684;48.358;10.746;2023-02-08T07:37:00;97982.84;;;-5.26;100.00
10014;BME280;45684;48.358;10.746;2023-02-08T07:39:28;97983.97;;;-5.20;100.00
10014;BME280;45684;48.358;10.746;2023-02-08T07:41:56;97989.34;;;-5.14;100.00
10014;BME280;45684;48.358;10.746;2023-02-08T07:44:28;97985.06;;;-5.06;100.00
10014;BME280;45684;48.358;10.746;2023-02-08T07:46:56;97979.75;;;-4.98;100.00
10014;BME280;45684;48.358;10.746;2023-02-08T07:49:24;97986.63;;;-4.89;100.00
10014;BME280;45684;48.358;10.746;2023-02-08T07:51:53;97986.56;;;-4.81;100.00
10014;BME280;45684;48.358;10.746;2023-02-08T07:54:21;97993.63;;;-4.73;100.00
10014;BME280;45684;48.358;10.746;2023-02-08T07:56:49;97980.53;;;-4.67;100.00
10014;BME280;45684;48.358;10.746;2023-02-08T07:59:17;97987.41;;;-4.57;100.00
10014;BME280;45684;48.358;10.746;2023-02-08T08:01:44;97994.81;;;-4.53;100.00
10014;BME280;45684;48.358;10.746;2023-02-08T08:04:12;97998.41;;;-4.46;100.00
10014;BME280;45684;48.358;10.746;2023-02-08T08:06:40;97996.53;;;-4.37;100.00
10014;BME280;45684;48.358;10.746;2023-02-08T08:09:09;97986.72;;;-4.28;100.00
10014;BME280;45684;48.358;10.746;2023-02-08T08:11:37;97995.94;;;-4.24;100.00
10014;BME280;45684;48.358;10.746;2023-02-08T08:14:05;97998.34;;;-4.15;100.00
10014;BME280;45684;48.358;10.746;2023-02-08T08:16:33;98002.91;;;-4.08;100.00
10014;BME280;45684;48.358;10.746;2023-02-08T08:19:00;97998.09;;;-4.05;100.00
10014;BME280;45684;48.358;10.746;2023-02-08T08:21:28;98000.31;;;-3.94;100.00
10014;BME280;45684;48.358;10.746;2023-02-08T08:23:56;98003.59;;;-3.92;100.00
10014;BME280;45684;48.358;10.746;2023-02-08T08:26:25;97995.44;;;-3.82;100.00
10014;BME280;45684;48.358;10.746;2023-02-08T08:28:55;97993.50;;;-3.73;100.00
10014;BME280;45684;48.358;10.746;2023-02-08T08:31:23;97993.81;;;-3.68;100.00
10014;BME280;45684;48.358;10.746;2023-02-08T08:33:51;97989.78;;;-3.64;100.00
10014;BME280;45684;48.358;10.746;2023-02-08T08:36:19;97990.34;;;-3.54;100.00
10014;BME280;45684;48.358;10.746;2023-02-08T08:38:46;97990.09;;;-3.44;100.00
10014;BME280;45684;48.358;10.746;2023-02-08T08:41:16;97981.41;;;-3.38;100.00
10014;BME280;45684;48.358;10.746;2023-02-08T08:43:45;97979.50;;;-3.29;100.00
10014;BME280;45684;48.358;10.746;2023-02-08T08:46:13;97988.16;;;-3.21;100.00
10014;BME280;45684;48.358;10.746;2023-02-08T08:48:42;97992.91;;;-3.16;100.00
10014;BME280;45684;48.358;10.746;2023-02-08T08:51:11;97993.44;;;-3.06;100.00
10014;BME280;45684;48.358;10.746;2023-02-08T08:53:39;97986.59;;;-3.00;100.00
10014;BME280;45684;48.358;10.746;2023-02-08T08:56:07;97985.03;;;-2.95;100.00
10014;BME280;45684;48.358;10.746;2023-02-08T08:58:35;97981.47;;;-2.87;100.00
10014;BME280;45684;48.358;10.746;2023-02-08T09:01:04;97981.09;;;-2.84;100.00
10014;BME280;45684;48.358;10.746;2023-02-08T09:03:32;97982.44;;;-2.73;100.00
10014;BME280;45684;48.358;10.746;2023-02-08T09:06:00;97980.88;;;-2.68;100.00
10014;BME280;45684;48.358;10.746;2023-02-08T09:08:28;97979.28;;;-2.62;100.00
10014;BME280;45684;48.358;10.746;2023-02-08T09:10:56;97973.69;;;-2.52;100.00
10014;BME280;45684;48.358;10.746;2023-02-08T09:13:23;97980.91;;;-2.46;100.00
10014;BME280;45684;48.358;10.746;2023-02-08T09:15:51;97976.22;;;-2.44;100.00
10014;BME280;45684;48.358;10.746;2023-02-08T09:18:20;97980.59;;;-2.37;100.00
10014;BME280;45684;48.358;10.746;2023-02-08T09:20:48;97981.44;;;-2.29;100.00
10014;BME280;45684;48.358;10.746;2023-02-08T09:23:16;97974.56;;;-2.24;100.00
10014;BME280;45684;48.358;10.746;2023-02-08T09:25:44;97977.53;;;-2.12;100.00
10014;BME280;45684;48.358;10.746;2023-02-08T09:28:13;97984.56;;;-2.04;100.00
10014;BME280;45684;48.358;10.746;2023-02-08T09:30:41;97993.00;;;-1.94;100.00
10014;BME280;45684;48.358;10.746;2023-02-08T09:33:09;97988.16;;;-1.91;100.00
10014;BME280;45684;48.358;10.746;2023-02-08T09:35:38;97986.06;;;-1.95;100.00
10014;BME280;45684;48.358;10.746;2023-02-08T09:38:07;97985.72;;;-1.86;100.00
10014;BME280;45684;48.358;10.746;2023-02-08T09:40:41;97983.94;;;-1.78;100.00
10014;BME280;45684;48.358;10.746;2023-02-08T09:43:17;97990.25;;;-1.80;100.00
10014;BME280;45684;48.358;10.746;2023-02-08T09:45:50;97990.25;;;-1.80;100.00
10014;BME280;45684;48.358;10.746;2023-02-08T09:48:28;97990.28;;;-1.73;100.00
10014;BME280;45684;48.358;10.746;2023-02-08T09:51:03;97987.50;;;-1.65;100.00
10014;BME280;45684;48.358;10.746;2023-02-08T09:53:35;97975.94;;;-1.57;100.00
10014;BME280;45684;48.358;10.746;2023-02-08T09:56:08;97979.03;;;-1.53;100.00
10014;BME280;45684;48.358;10.746;2023-02-08T09:58:40;97970.66;;;-1.50;100.00
10014;BME280;45684;48.358;10.746;2023-02-08T10:01:14;97971.53;;;-1.43;100.00
10014;BME280;45684;48.358;10.746;2023-02-08T10:03:45;97961.69;;;-1.49;100.00
10014;BME280;45684;48.358;10.746;2023-02-08T10:06:16;97965.22;;;-1.42;100.00
10014;BME280;45684;48.358;10.746;2023-02-08T10:08:46;97967.91;;;-1.36;100.00
10014;BME280;45684;48.358;10.746;2023-02-08T10:11:32;97958.38;;;-1.23;100.00
10014;BME280;45684;48.358;10.746;2023-02-08T10:14:17;97956.38;;;-1.15;100.00
10014;BME280;45684;48.358;10.746;2023-02-08T10:16:58;97960.50;;;-1.06;100.00
10014;BME280;45684;48.358;10.746;2023-02-08T10:19:36;97958.69;;;-0.98;100.00
10014;BME280;45684;48.358;10.746;2023-02-08T10:22:21;97956.91;;;-0.85;100.00
10014;BME280;45684;48.358;10.746;2023-02-08T10:25:11;97955.31;;;-0.79;100.00
10014;BME280;45684;48.358;10.746;2023-02-08T10:27:51;97955.53;;;-0.74;100.00
10014;BME280;45684;48.358;10.746;2023-02-08T10:30:34;97958.78;;;-0.79;100.00
10014;BME280;45684;48.358;10.746;2023-02-08T10:33:12;97955.50;;;-0.81;100.00
10014;BME280;45684;48.358;10.746;2023-02-08T10:35:45;97953.03;;;-0.82;100.00
10014;BME280;45684;48.358;10.746;2023-02-08T10:38:23;97954.09;;;-0.77;100.00
10014;BME280;45684;48.358;10.746;2023-02-08T10:41:01;97957.78;;;-0.71;100.00
10014;BME280;45684;48.358;10.746;2023-02-08T10:43:36;97947.34;;;-0.66;100.00
10014;BME280;45684;48.358;10.746;2023-02-08T10:46:10;97963.13;;;-0.58;100.00
10014;BME280;45684;48.358;10.746;2023-02-08T10:48:51;97966.84;;;-0.45;100.00
10014;BME280;45684;48.358;10.746;2023-02-08T10:51:21;97955.81;;;-0.36;100.00
10014;BME280;45684;48.358;10.746;2023-02-08T10:53:52;97953.78;;;-0.34;100.00
10014;BME280;45684;48.358;10.746;2023-02-08T10:56:42;97938.25;;;-0.30;100.00
10014;BME280;45684;48.358;10.746;2023-02-08T10:59:15;97942.75;;;-0.24;100.00
10014;BME280;45684;48.358;10.746;2023-02-08T11:01:45;97947.25;;;-0.18;100.00
10014;BME280;45684;48.358;10.746;2023-02-08T11:04:14;97936.19;;;-0.15;100.00
10014;BME280;45684;48.358;10.746;2023-02-08T11:06:44;97921.47;;;-0.11;100.00
10014;BME280;45684;48.358;10.746;2023-02-08T11:09:25;97922.72;;;-0.07;100.00
10014;BME280;45684;48.358;10.746;2023-02-08T11:11:55;97935.00;;;0.01;99.50
10014;BME280;45684;48.358;10.746;2023-02-08T11:14:26;97930.91;;;-0.02;99.79
10014;BME280;45684;48.358;10.746;2023-02-08T11:17:23;97937.03;;;0.06;100.00
10014;BME280;45684;48.358;10.746;2023-02-08T11:19:52;97940.50;;;0.13;100.00
10014;BME280;45684;48.358;10.746;2023-02-08T11:22:23;97934.16;;;0.14;100.00
10014;BME280;45684;48.358;10.746;2023-02-08T11:24:57;97945.22;;;0.17;100.00
10014;BME280;45684;48.358;10.746;2023-02-08T11:27:30;97926.78;;;0.22;100.00
10014;BME280;45684;48.358;10.746;2023-02-08T11:30:20;97928.00;;;0.27;100.00
10014;BME280;45684;48.358;10.746;2023-02-08T11:33:16;97927.81;;;0.28;97.90
10014;BME280;45684;48.358;10.746;2023-02-08T11:36:11;97933.13;;;0.35;98.69
10014;BME280;45684;48.358;10.746;2023-02-08T11:38:41;97931.06;;;0.37;99.04
10014;BME280;45684;48.358;10.746;2023-02-08T11:41:16;97919.00;;;0.34;98.21
10014;BME280;45684;48.358;10.746;2023-02-08T11:43:55;97922.50;;;0.28;98.22
10014;BME280;45684;48.358;10.746;2023-02-08T11:46:25;97902.59;;;0.37;99.58
10014;BME280;45684;48.358;10.746;2023-02-08T11:48:54;97903.84;;;0.35;99.08
10014;BME280;45684;48.358;10.746;2023-02-08T11:51:25;97907.75;;;0.39;100.00
10014;BME280;45684;48.358;10.746;2023-02-08T11:53:54;97895.66;;;0.43;98.61
10014;BME280;45684;48.358;10.746;2023-02-08T11:56:27;97896.03;;;0.53;99.52
10014;BME280;45684;48.358;10.746;2023-02-08T11:58:57;97895.63;;;0.56;98.42
10014;BME280;45684;48.358;10.746;2023-02-08T12:01:27;97888.22;;;0.65;98.05
10014;BME280;45684;48.358;10.746;2023-02-08T12:03:57;97889.88;;;0.66;97.67
10014;BME280;45684;48.358;10.746;2023-02-08T12:06:40;97880.00;;;0.73;97.38
10014;BME280;45684;48.358;10.746;2023-02-08T12:09:22;97880.81;;;0.73;96.64
10014;BME280;45684;48.358;10.746;2023-02-08T12:12:02;97879.97;;;0.80;96.94
10014;BME280;45684;48.358;10.746;2023-02-08T12:14:47;97879.78;;;0.81;96.35
10014;BME280;45684;48.358;10.746;2023-02-08T12:17:36;97871.16;;;0.86;95.70
10014;BME280;45684;48.358;10.746;2023-02-08T12:20:31;97862.53;;;0.90;94.91
10014;BME280;45684;48.358;10.746;2023-02-08T12:23:13;97870.28;;;0.98;96.20
10014;BME280;45684;48.358;10.746;2023-02-08T12:25:53;97864.72;;;1.00;95.38
10014;BME280;45684;48.358;10.746;2023-02-08T12:28:37;97857.31;;;1.09;95.35
10014;BME280;45684;48.358;10.746;2023-02-08T12:31:15;97859.16;;;1.08;92.98
10014;BME280;45684;48.358;10.746;2023-02-08T12:33:53;97849.06;;;1.17;92.23
10014;BME280;45684;48.358;10.746;2023-02-08T12:36:41;97842.69;;;1.18;92.24
10014;BME280;45684;48.358;10.746;2023-02-08T12:39:23;97831.44;;;1.16;89.96
10014;BME280;45684;48.358;10.746;2023-02-08T12:42:23;97832.69;;;1.13;90.62
10014;BME280;45684;48.358;10.746;2023-02-08T12:45:19;97829.78;;;1.21;93.40
10014;BME280;45684;48.358;10.746;2023-02-08T12:47:59;97839.16;;;1.31;92.71
10014;BME280;45684;48.358;10.746;2023-02-08T12:50:37;97821.47;;;1.36;93.26
10014;BME280;45684;48.358;10.746;2023-02-08T12:53:15;97821.00;;;1.39;92.41
10014;BME280;45684;48.358;10.746;2023-02-08T12:55:44;97810.34;;;1.39;93.09
10014;BME280;45684;48.358;10.746;2023-02-08T12:58:25;97809.13;;;1.42;91.32
10014;BME280;45684;48.358;10.746;2023-02-08T13:01:00;97813.47;;;1.36;93.13
10014;BME280;45684;48.358;10.746;2023-02-08T13:03:34;97801.94;;;1.42;91.37
10014;BME280;45684;48.358;10.746;2023-02-08T13:06:05;97796.19;;;1.45;90.90
10014;BME280;45684;48.358;10.746;2023-02-08T13:08:38;97796.84;;;1.41;90.60